createdAt,value
2023-02-11T00:00:27.230Z,91.000
2023-02-11T00:01:25.193Z,88.450
2023-02-11T00:02:35.271Z,89.950
2023-02-11T00:03:28.254Z,89.800
2023-02-11T00:04:29.287Z,88.000
2023-02-11T00:05:21.614Z,88.300
2023-02-11T00:06:29.769Z,89.950
2023-02-11T00:07:26.855Z,93.750
2023-02-11T00:08:32.271Z,95.100
2023-02-11T00:09:38.063Z,90.200
2023-02-11T00:10:31.048Z,86.900
2023-02-11T00:11:26.888Z,86.900
2023-02-11T00:12:23.770Z,92.200
2023-02-11T00:13:27.072Z,90.350
2023-02-11T00:14:26.244Z,89.300
2023-02-11T00:15:22.977Z,90.400
2023-02-11T00:16:24.430Z,89.200
2023-02-11T00:17:22.274Z,89.000
2023-02-11T00:18:23.805Z,93.400
2023-02-11T00:19:19.816Z,90.500
2023-02-11T00:20:30.077Z,85.650
2023-02-11T00:21:20.876Z,90.300
2023-02-11T00:22:21.691Z,83.000
2023-02-11T00:23:26.816Z,86.800
2023-02-11T00:24:28.001Z,88.650
2023-02-11T00:25:24.264Z,89.500
2023-02-11T00:26:21.642Z,86.700
2023-02-11T00:27:22.206Z,88.700
2023-02-11T00:28:26.950Z,89.500
2023-02-11T00:29:22.555Z,83.950
2023-02-11T00:30:33.315Z,83.800
2023-02-11T00:31:22.447Z,85.100
2023-02-11T00:32:24.485Z,83.000
2023-02-11T00:33:20.148Z,77.050
2023-02-11T00:34:25.245Z,72.600
2023-02-11T00:35:30.459Z,77.050
2023-02-11T00:36:21.612Z,75.500
2023-02-11T00:37:32.859Z,76.350
2023-02-11T00:38:20.091Z,72.450
2023-02-11T00:39:19.897Z,73.550
2023-02-11T00:40:20.169Z,76.000
2023-02-11T00:41:29.857Z,71.450
2023-02-11T00:42:26.065Z,74.100
2023-02-11T00:43:22.061Z,83.200
2023-02-11T00:44:32.443Z,83.500
2023-02-11T00:45:22.866Z,85.600
2023-02-11T00:46:25.400Z,83.700
2023-02-11T00:47:20.468Z,84.500
2023-02-11T00:48:32.818Z,87.450
2023-02-11T00:49:25.899Z,88.800
2023-02-11T00:50:21.999Z,91.900
2023-02-11T00:51:25.535Z,89.050
2023-02-11T00:52:28.404Z,86.950
2023-02-11T00:53:24.868Z,82.700
2023-02-11T00:54:21.109Z,85.850
2023-02-11T00:55:29.832Z,86.500
2023-02-11T00:56:21.175Z,87.700
2023-02-11T00:57:22.012Z,89.650
2023-02-11T00:58:27.541Z,89.050
2023-02-11T00:59:19.894Z,89.200
2023-02-11T01:00:24.064Z,88.950
2023-02-11T01:01:20.645Z,88.700
2023-02-11T01:02:24.092Z,89.200
2023-02-11T01:03:27.590Z,75.800
2023-02-11T01:04:22.767Z,73.650
2023-02-11T01:05:32.292Z,76.500
2023-02-11T01:06:26.080Z,80.800
2023-02-11T01:07:23.873Z,85.450
2023-02-11T01:08:19.884Z,91.100
2023-02-11T01:09:23.096Z,90.750
2023-02-11T01:10:26.763Z,89.600
2023-02-11T01:11:22.937Z,89.500
2023-02-11T01:12:36.596Z,87.250
2023-02-11T01:13:27.673Z,84.100
2023-02-11T01:14:23.843Z,85.200
2023-02-11T01:15:19.867Z,81.700
2023-02-11T01:16:27.004Z,80.250
2023-02-11T01:17:19.897Z,85.800
2023-02-11T01:18:22.402Z,89.700
2023-02-11T01:19:23.209Z,86.500
2023-02-11T01:20:29.824Z,84.300
2023-02-11T01:21:24.809Z,81.700
2023-02-11T01:22:21.634Z,79.600
2023-02-11T01:23:32.468Z,87.900
2023-02-11T01:24:26.189Z,82.900
2023-02-11T01:25:22.276Z,86.900
2023-02-11T01:26:34.126Z,87.150
2023-02-11T01:27:28.083Z,90.350
2023-02-11T01:28:24.312Z,88.600
2023-02-11T01:29:21.898Z,89.950
2023-02-11T01:30:20.824Z,89.200
2023-02-11T01:31:29.378Z,88.850
2023-02-11T01:32:22.668Z,87.200
2023-02-11T01:33:32.830Z,81.600
2023-02-11T01:34:28.121Z,87.050
2023-02-11T01:35:24.872Z,84.850
2023-02-11T01:36:20.319Z,83.000
2023-02-11T01:37:29.972Z,84.450
2023-02-11T01:38:27.460Z,87.850
2023-02-11T01:39:22.136Z,89.700
2023-02-11T01:40:32.477Z,92.900
2023-02-11T01:41:29.869Z,88.000
2023-02-11T01:42:24.301Z,86.750
2023-02-11T01:43:20.672Z,91.300
2023-02-11T01:44:25.512Z,93.000
2023-02-11T01:45:25.970Z,94.900
2023-02-11T01:46:23.145Z,91.200
2023-02-11T01:47:24.255Z,91.750
2023-02-11T01:48:29.757Z,82.350
2023-02-11T01:49:24.183Z,85.900
2023-02-11T01:50:21.811Z,84.750
2023-02-11T01:51:31.698Z,74.650
2023-02-11T01:52:19.707Z,83.300
2023-02-11T01:53:23.733Z,71.450
2023-02-11T01:54:27.715Z,69.650
2023-02-11T01:55:20.040Z,69.500
2023-02-11T01:56:24.221Z,90.100
2023-02-11T01:57:20.105Z,97.000
2023-02-11T01:58:31.542Z,85.900
2023-02-11T01:59:27.689Z,84.400
2023-02-11T02:00:37.669Z,77.700
2023-02-11T02:01:34.116Z,82.600
2023-02-11T02:02:25.414Z,80.700
2023-02-11T02:03:35.843Z,86.000
2023-02-11T02:04:41.227Z,73.750
2023-02-11T02:05:34.385Z,72.000
2023-02-11T02:06:41.399Z,87.100
2023-02-11T02:13:30.024Z,84.900
2023-02-11T02:14:55.430Z,75.000
2023-02-11T02:15:22.445Z,75.150
2023-02-11T02:20:29.441Z,89.500
2023-02-11T02:21:22.981Z,79.600
2023-02-11T02:22:23.738Z,68.700
2023-02-11T02:23:28.405Z,70.500
2023-02-11T02:24:24.460Z,64.950
2023-02-11T02:25:20.064Z,69.700
2023-02-11T02:26:27.206Z,71.800
2023-02-11T02:27:26.326Z,69.050
2023-02-11T02:28:24.095Z,73.300
2023-02-11T02:29:27.791Z,76.200
2023-02-11T02:30:20.673Z,77.450
2023-02-11T02:31:24.356Z,75.700
2023-02-11T02:32:25.069Z,67.050
2023-02-11T02:33:23.488Z,71.650
2023-02-11T02:34:26.378Z,73.600
2023-02-11T02:35:39.108Z,69.600
2023-02-11T02:36:32.292Z,69.200
2023-02-11T02:37:25.761Z,68.350
2023-02-11T02:38:24.275Z,70.150
2023-02-11T02:39:20.940Z,69.000
2023-02-11T02:40:24.981Z,69.250
2023-02-11T02:41:28.120Z,68.600
2023-02-11T02:42:22.270Z,71.800
2023-02-11T02:43:23.258Z,77.300
2023-02-11T02:44:28.065Z,75.200
2023-02-11T02:45:20.023Z,73.900
2023-02-11T02:46:21.610Z,78.000
2023-02-11T02:47:31.489Z,81.650
2023-02-11T02:48:24.035Z,91.000
2023-02-11T02:49:22.290Z,74.500
2023-02-11T02:50:34.027Z,72.650
2023-02-11T02:51:31.212Z,71.100
2023-02-11T02:52:24.152Z,71.600
2023-02-11T02:53:21.924Z,70.800
2023-02-11T02:54:32.610Z,74.550
2023-02-11T02:55:26.083Z,81.850
2023-02-11T02:56:22.373Z,83.400
2023-02-11T02:57:32.461Z,90.050
2023-02-11T02:58:29.915Z,85.600
2023-02-11T02:59:20.542Z,86.600
2023-02-11T03:00:23.817Z,86.800
2023-02-11T03:01:32.479Z,89.000
2023-02-11T03:02:30.365Z,84.600
2023-02-11T03:03:23.120Z,71.300
2023-02-11T03:04:34.337Z,77.550
2023-02-11T03:05:28.613Z,81.800
2023-02-11T03:06:24.050Z,84.000
2023-02-11T03:07:21.534Z,89.200
2023-02-11T03:08:32.142Z,85.000
2023-02-11T03:09:26.492Z,95.500
2023-02-11T03:10:21.984Z,99.550
2023-02-11T03:11:20.246Z,90.900
2023-02-11T03:12:28.399Z,96.800
2023-02-11T03:13:25.979Z,102.900
2023-02-11T03:14:20.163Z,95.100
2023-02-11T03:15:22.079Z,93.550
2023-02-11T03:16:26.530Z,95.700
2023-02-11T03:17:24.689Z,95.300
2023-02-11T03:18:24.633Z,92.200
2023-02-11T03:19:30.405Z,88.950
2023-02-11T03:20:24.543Z,91.500
2023-02-11T03:21:20.061Z,89.600
2023-02-11T03:22:27.814Z,89.400
2023-02-11T03:23:30.594Z,88.000
2023-02-11T03:24:24.102Z,93.400
2023-02-11T03:25:29.146Z,93.800
2023-02-11T03:26:22.019Z,94.400
2023-02-11T03:27:25.984Z,91.200
2023-02-11T03:28:21.049Z,85.000
2023-02-11T03:29:31.780Z,79.250
2023-02-11T03:30:23.254Z,81.700
2023-02-11T03:31:23.743Z,82.050
2023-02-11T03:32:34.506Z,84.950
2023-02-11T03:33:28.407Z,82.800
2023-02-11T03:34:26.489Z,84.450
2023-02-11T03:35:22.100Z,83.250
2023-02-11T03:36:30.213Z,86.750
2023-02-11T03:37:28.655Z,88.800
2023-02-11T03:38:22.355Z,86.350
2023-02-11T03:39:32.088Z,86.200
2023-02-11T03:40:33.271Z,87.150
2023-02-11T03:41:24.260Z,87.500
2023-02-11T03:42:21.278Z,89.650
2023-02-11T03:43:32.530Z,90.350
2023-02-11T03:44:26.187Z,90.900
2023-02-11T03:45:26.485Z,90.900
2023-02-11T03:46:20.681Z,91.000
2023-02-11T03:47:28.081Z,90.800
2023-02-11T03:48:26.226Z,87.850
2023-02-11T03:49:20.367Z,88.550
2023-02-11T03:50:31.313Z,87.850
2023-02-11T03:51:29.743Z,85.500
2023-02-11T03:52:22.473Z,85.500
2023-02-11T03:53:24.507Z,86.000
2023-02-11T03:54:30.337Z,84.000
2023-02-11T03:55:24.840Z,83.000
2023-02-11T03:56:20.386Z,87.500
2023-02-11T03:57:34.914Z,84.600
2023-02-11T03:58:26.157Z,78.200
2023-02-11T03:59:22.204Z,71.300
2023-02-11T04:00:27.508Z,71.700
2023-02-11T04:01:28.717Z,66.800
2023-02-11T04:02:26.203Z,69.200
2023-02-11T04:03:20.320Z,65.000
2023-02-11T04:04:22.404Z,64.200
2023-02-11T04:05:27.934Z,65.750
2023-02-11T04:06:22.284Z,69.000
2023-02-11T04:07:29.274Z,62.200
2023-02-11T04:08:22.260Z,60.800
2023-02-11T04:09:26.081Z,65.250
2023-02-11T04:10:20.223Z,67.600
2023-02-11T04:11:28.037Z,73.950
2023-02-11T04:12:26.522Z,86.200
2023-02-11T04:13:24.439Z,89.100
2023-02-11T04:14:34.983Z,86.550
2023-02-11T04:15:28.184Z,90.200
2023-02-11T04:16:24.689Z,92.300
2023-02-11T04:17:20.654Z,94.150
2023-02-11T04:18:27.327Z,90.650
2023-02-11T04:19:23.274Z,88.700
2023-02-11T04:20:23.820Z,90.300
2023-02-11T04:21:32.323Z,85.700
2023-02-11T04:22:22.126Z,86.400
2023-02-11T04:23:24.943Z,87.150
2023-02-11T04:24:20.560Z,88.600
2023-02-11T04:25:36.035Z,89.500
2023-02-11T04:26:28.450Z,91.600
2023-02-11T04:27:24.587Z,91.950
2023-02-11T04:28:33.663Z,91.650
2023-02-11T04:29:25.233Z,95.700
2023-02-11T04:30:27.071Z,90.750
2023-02-11T04:31:20.801Z,88.750
2023-02-11T04:32:34.191Z,83.900
2023-02-11T04:33:22.740Z,80.100
2023-02-11T04:34:26.757Z,78.750
2023-02-11T04:35:32.154Z,85.400
2023-02-11T04:36:30.154Z,83.700
2023-02-11T04:37:24.500Z,85.200
2023-02-11T04:38:20.586Z,89.350
2023-02-11T04:39:30.237Z,83.500
2023-02-11T04:40:23.173Z,83.250
2023-02-11T04:41:22.442Z,76.900
2023-02-11T04:42:24.490Z,75.300
2023-02-11T04:43:32.591Z,76.800
2023-02-11T04:44:24.495Z,77.000
2023-02-11T04:45:21.220Z,75.600
2023-02-11T04:46:20.880Z,70.700
2023-02-11T04:47:27.083Z,72.200
2023-02-11T04:48:23.194Z,84.600
2023-02-11T04:49:27.161Z,86.250
2023-02-11T04:50:30.528Z,84.700
2023-02-11T04:51:21.876Z,73.400
2023-02-11T04:52:20.490Z,75.800
2023-02-11T04:53:26.495Z,79.050
2023-02-11T04:54:31.632Z,78.050
2023-02-11T04:55:22.321Z,83.800
2023-02-11T04:56:32.780Z,74.350
2023-02-11T04:57:23.934Z,72.800
2023-02-11T04:58:24.728Z,65.850
2023-02-11T04:59:20.452Z,62.550
2023-02-11T05:00:30.564Z,60.400
2023-02-11T05:01:24.030Z,61.000
2023-02-11T05:02:22.773Z,64.800
2023-02-11T05:03:35.025Z,67.950
2023-02-11T05:04:30.678Z,65.200
2023-02-11T05:05:20.976Z,64.900
2023-02-11T05:06:20.421Z,69.950
2023-02-11T05:07:35.189Z,72.950
2023-02-11T05:08:26.563Z,73.000
2023-02-11T05:09:22.752Z,72.650
2023-02-11T05:10:32.990Z,66.500
2023-02-11T05:11:30.563Z,63.900
2023-02-11T05:12:25.241Z,65.300
2023-02-11T05:13:20.733Z,65.000
2023-02-11T05:14:30.600Z,59.450
2023-02-11T05:15:26.768Z,58.400
2023-02-11T05:16:27.653Z,56.850
2023-02-11T05:17:32.427Z,59.200
2023-02-11T05:18:28.451Z,57.500
2023-02-11T05:19:24.711Z,56.600
2023-02-11T05:20:22.306Z,58.000
2023-02-11T05:21:30.413Z,62.500
2023-02-11T05:22:26.501Z,59.200
2023-02-11T05:23:23.947Z,61.900
2023-02-11T05:24:19.732Z,58.050
2023-02-11T05:25:28.426Z,58.400
2023-02-11T05:26:26.589Z,66.800
2023-02-11T05:27:24.034Z,72.900
2023-02-11T05:28:20.053Z,73.900
2023-02-11T05:29:28.275Z,72.650
2023-02-11T05:30:22.633Z,79.600
2023-02-11T05:31:23.862Z,82.000
2023-02-11T05:32:28.809Z,79.500
2023-02-11T05:33:25.565Z,80.650
2023-02-11T05:34:20.596Z,85.300
2023-02-11T05:35:24.089Z,89.800
2023-02-11T05:36:26.591Z,87.500
2023-02-11T05:37:24.324Z,88.200
2023-02-11T05:38:22.908Z,81.850
2023-02-11T05:39:20.982Z,76.300
2023-02-11T05:40:24.475Z,79.400
2023-02-11T05:41:20.389Z,77.150
2023-02-11T05:42:31.524Z,68.300
2023-02-11T05:43:24.050Z,84.200
2023-02-11T05:44:22.489Z,82.000
2023-02-11T05:45:24.343Z,87.900
2023-02-11T05:46:26.725Z,78.200
2023-02-11T05:47:24.538Z,72.150
2023-02-11T05:48:20.651Z,65.500
2023-02-11T05:49:32.554Z,61.850
2023-02-11T05:50:26.805Z,61.350
2023-02-11T05:51:23.267Z,61.300
2023-02-11T05:52:28.801Z,63.450
2023-02-11T05:53:44.315Z,70.050
2023-02-11T05:54:23.427Z,77.000
2023-02-11T05:55:20.405Z,60.900
2023-02-11T05:56:22.263Z,69.500
2023-02-11T05:57:31.118Z,59.250
2023-02-11T05:58:37.899Z,60.800
2023-02-11T05:59:32.575Z,68.300
2023-02-11T06:00:29.550Z,75.700
2023-02-11T06:01:25.875Z,75.250
2023-02-11T06:02:34.581Z,77.400
2023-02-11T06:03:27.187Z,72.100
2023-02-11T06:04:26.850Z,69.000
2023-02-11T06:05:22.787Z,70.700
2023-02-11T06:06:20.796Z,74.500
2023-02-11T06:07:22.955Z,80.400
2023-02-11T06:08:24.732Z,76.200
2023-02-11T06:09:22.965Z,78.700
2023-02-11T06:10:31.026Z,82.100
2023-02-11T06:11:23.150Z,84.100
2023-02-11T06:12:22.753Z,77.950
2023-02-11T06:13:24.209Z,73.750
2023-02-11T06:14:23.436Z,70.000
2023-02-11T06:15:25.381Z,76.950
2023-02-11T06:16:20.908Z,82.300
2023-02-11T06:17:21.287Z,81.900
2023-02-11T06:18:26.695Z,81.400
2023-02-11T06:19:23.797Z,81.700
2023-02-11T06:20:29.587Z,77.250
2023-02-11T06:21:21.187Z,71.950
2023-02-11T06:22:22.313Z,66.000
2023-02-11T06:23:20.844Z,75.200
2023-02-11T06:24:45.182Z,84.700
2023-02-11T06:25:27.908Z,79.300
2023-02-11T06:26:22.958Z,78.200
2023-02-11T06:27:32.897Z,79.300
2023-02-11T06:28:25.470Z,78.000
2023-02-11T06:29:24.658Z,78.100
2023-02-11T06:30:20.632Z,75.150
2023-02-11T06:31:29.741Z,81.200
2023-02-11T06:32:42.365Z,81.000
2023-02-11T06:33:23.344Z,84.900
2023-02-11T06:34:34.492Z,83.450
2023-02-11T06:35:33.003Z,88.600
2023-02-11T06:36:26.224Z,81.650
2023-02-11T06:37:20.590Z,86.950
2023-02-11T06:38:31.834Z,79.200
2023-02-11T06:39:28.133Z,81.350
2023-02-11T06:40:22.587Z,74.800
2023-02-11T06:41:33.514Z,75.500
2023-02-11T06:42:30.456Z,73.900
2023-02-11T06:43:27.088Z,84.650
2023-02-11T06:44:20.506Z,79.500
2023-02-11T06:45:29.527Z,86.100
2023-02-11T06:46:31.906Z,84.300
2023-02-11T06:47:22.998Z,78.100
2023-02-11T06:48:34.310Z,82.600
2023-02-11T06:49:28.978Z,84.300
2023-02-11T06:50:26.133Z,76.500
2023-02-11T06:51:20.559Z,80.100
2023-02-11T06:52:32.693Z,76.200
2023-02-11T06:53:26.820Z,77.300
2023-02-11T06:54:27.477Z,72.500
2023-02-11T06:55:34.252Z,70.700
2023-02-11T06:56:24.211Z,75.100
2023-02-11T06:57:25.774Z,72.350
2023-02-11T06:58:20.962Z,74.400
2023-02-11T06:59:23.677Z,66.600
2023-02-11T07:00:26.845Z,66.750
2023-02-11T07:01:24.079Z,62.200
2023-02-11T07:02:25.038Z,61.750
2023-02-11T07:03:30.834Z,58.300
2023-02-11T07:04:24.798Z,63.300
2023-02-11T07:05:21.182Z,59.150
2023-02-11T07:06:26.002Z,67.200
2023-02-11T07:07:22.481Z,66.800
2023-02-11T07:08:22.897Z,60.500
2023-02-11T07:09:26.763Z,64.600
2023-02-11T07:10:21.157Z,62.850
2023-02-11T07:11:25.860Z,65.550
2023-02-11T07:12:21.444Z,58.800
2023-02-11T07:13:26.515Z,61.800
2023-02-11T07:14:24.499Z,60.400
2023-02-11T07:15:22.841Z,57.250
2023-02-11T07:16:33.056Z,59.200
2023-02-11T07:17:24.962Z,67.600
2023-02-11T07:18:40.779Z,62.500
2023-02-11T07:19:20.933Z,67.500
2023-02-11T07:20:36.243Z,67.900
2023-02-11T07:21:27.215Z,69.700
2023-02-11T07:22:24.319Z,74.200
2023-02-11T07:23:20.269Z,71.700
2023-02-11T07:24:25.090Z,70.100
2023-02-11T07:25:25.813Z,70.950
2023-02-11T07:26:21.003Z,84.350
2023-02-11T07:27:39.472Z,82.750
2023-02-11T07:28:27.145Z,85.900
2023-02-11T07:29:26.329Z,83.550
2023-02-11T07:30:22.600Z,76.000
2023-02-11T07:31:32.004Z,73.500
2023-02-11T07:32:27.743Z,81.750
2023-02-11T07:33:20.714Z,80.950
2023-02-11T07:34:30.996Z,84.750
2023-02-11T07:35:21.334Z,90.400
2023-02-11T07:36:24.812Z,93.100
2023-02-11T07:37:22.007Z,99.350
2023-02-11T07:38:30.942Z,102.600
2023-02-11T07:39:25.758Z,95.150
2023-02-11T07:40:23.615Z,109.800
2023-02-11T07:41:20.422Z,100.850
2023-02-11T07:42:27.013Z,102.800
2023-02-11T07:43:35.156Z,103.100
2023-02-11T07:44:28.637Z,91.400
2023-02-11T07:45:28.933Z,88.300
2023-02-11T07:46:26.339Z,84.000
2023-02-11T07:47:25.789Z,78.600
2023-02-11T07:48:23.740Z,88.400
2023-02-11T07:49:28.199Z,78.950
2023-02-11T07:50:39.000Z,81.350
2023-02-11T07:51:33.422Z,77.500
2023-02-11T07:52:23.882Z,85.350
2023-02-11T07:53:25.610Z,82.000
2023-02-11T07:54:21.007Z,74.300
2023-02-11T07:55:25.118Z,98.550
2023-02-11T07:56:28.628Z,93.750
2023-02-11T07:57:23.685Z,87.800
2023-02-11T07:58:26.965Z,81.300
2023-02-11T07:59:22.174Z,87.550
2023-02-11T08:00:21.820Z,86.200
2023-02-11T08:01:22.235Z,91.050
2023-02-11T08:02:32.565Z,95.750
2023-02-11T08:03:20.711Z,123.500
2023-02-11T08:04:24.940Z,103.250
2023-02-11T08:05:33.668Z,93.600
2023-02-11T08:06:24.625Z,83.100
2023-02-11T08:07:26.782Z,83.000
2023-02-11T08:08:40.054Z,88.700
2023-02-11T08:09:25.486Z,83.600
2023-02-11T08:10:21.188Z,82.450
2023-02-11T08:11:22.900Z,90.300
2023-02-11T08:12:34.975Z,81.000
2023-02-11T08:13:28.833Z,79.350
2023-02-11T08:14:25.036Z,74.400
2023-02-11T08:15:23.547Z,77.500
2023-02-11T08:16:31.349Z,76.850
2023-02-11T08:17:22.500Z,85.300
2023-02-11T08:18:22.795Z,83.650
2023-02-11T08:19:44.973Z,74.750
2023-02-11T08:20:22.046Z,86.900
2023-02-11T08:21:26.017Z,86.450
2023-02-11T08:22:20.845Z,88.250
2023-02-11T08:23:39.598Z,110.700
2023-02-11T08:24:27.977Z,81.450
2023-02-11T08:25:25.072Z,82.500
2023-02-11T08:26:27.923Z,79.400
2023-02-11T08:27:29.077Z,98.400
2023-02-11T08:28:20.564Z,87.500
2023-02-11T08:29:22.465Z,80.100
2023-02-11T08:30:25.075Z,91.100
2023-02-11T08:31:29.005Z,77.400
2023-02-11T08:32:22.783Z,96.800
2023-02-11T08:33:22.007Z,84.550
2023-02-11T08:34:30.219Z,88.400
2023-02-11T08:35:24.700Z,80.650
2023-02-11T08:36:20.779Z,86.250
2023-02-11T08:37:24.497Z,73.600
2023-02-11T08:38:21.418Z,87.550
2023-02-11T08:39:32.604Z,93.300
2023-02-11T08:40:28.067Z,92.050
2023-02-11T08:41:40.859Z,82.500
2023-02-11T08:42:26.697Z,79.200
2023-02-11T08:43:29.678Z,80.850
2023-02-11T08:44:33.510Z,81.400
2023-02-11T08:45:28.513Z,79.700
2023-02-11T08:46:23.348Z,79.000
2023-02-11T08:47:30.576Z,92.450
2023-02-11T08:48:23.971Z,111.800
2023-02-11T08:49:24.991Z,111.400
2023-02-11T08:50:44.843Z,96.700
2023-02-11T08:51:37.623Z,85.000
2023-02-11T08:52:30.911Z,94.300
2023-02-11T08:53:25.370Z,110.500
2023-02-11T08:54:25.732Z,104.800
2023-02-11T08:55:26.871Z,100.450
2023-02-11T08:56:20.989Z,109.600
2023-02-11T08:57:19.520Z,126.250
2023-02-11T08:58:31.712Z,137.600
2023-02-11T08:59:34.153Z,134.400
2023-02-11T09:00:29.934Z,132.850
2023-02-11T09:01:37.718Z,135.200
2023-02-11T09:02:30.998Z,131.400
2023-02-11T09:03:25.140Z,133.700
2023-02-11T09:04:23.430Z,128.500
2023-02-11T09:05:23.041Z,128.700
2023-02-11T09:06:38.752Z,122.650
2023-02-11T09:07:50.674Z,130.200
2023-02-11T09:08:25.626Z,118.700
2023-02-11T09:09:36.274Z,115.900
2023-02-11T09:10:27.987Z,121.500
2023-02-11T09:11:21.015Z,128.950
2023-02-11T09:12:41.962Z,130.000
2023-02-11T09:13:43.045Z,122.600
2023-02-11T09:14:36.751Z,112.100
2023-02-11T09:15:20.801Z,114.900
2023-02-11T09:16:39.793Z,107.250
2023-02-11T09:17:33.368Z,96.750
2023-02-11T09:18:25.315Z,102.600
2023-02-11T09:19:54.141Z,107.750
2023-02-11T09:20:48.009Z,110.450
2023-02-11T09:21:41.715Z,100.200
2023-02-11T09:22:25.768Z,91.300
2023-02-11T09:23:25.019Z,96.200
2023-02-11T09:24:36.386Z,96.050
2023-02-11T09:25:30.488Z,110.250
2023-02-11T09:26:21.997Z,108.950
2023-02-11T09:27:54.302Z,110.500
2023-02-11T09:28:31.328Z,109.800
2023-02-11T09:29:27.663Z,99.200
2023-02-11T09:30:29.386Z,102.500
2023-02-11T09:31:23.989Z,100.200
2023-02-11T09:32:34.939Z,98.700
2023-02-11T09:33:21.620Z,95.800
2023-02-11T09:34:35.422Z,95.350
2023-02-11T09:35:44.325Z,105.500
2023-02-11T09:36:31.153Z,108.150
2023-02-11T09:37:37.338Z,115.350
2023-02-11T09:38:27.180Z,113.650
2023-02-11T09:39:20.811Z,109.400
2023-02-11T09:40:24.747Z,100.600
2023-02-11T09:41:23.037Z,107.400
2023-02-11T09:42:47.667Z,109.550
2023-02-11T09:43:32.434Z,106.700
2023-02-11T09:44:21.262Z,107.600
2023-02-11T09:45:31.114Z,109.800
2023-02-11T09:46:25.121Z,110.200
2023-02-11T09:47:27.831Z,115.600
2023-02-11T09:48:27.113Z,110.150
2023-02-11T09:49:20.000Z,112.100
2023-02-11T09:50:24.670Z,109.700
2023-02-11T09:51:22.880Z,112.500
2023-02-11T09:52:54.063Z,107.950
2023-02-11T09:53:29.291Z,103.000
2023-02-11T09:54:21.838Z,103.500
2023-02-11T09:55:30.759Z,109.300
2023-02-11T09:56:24.547Z,103.150
2023-02-11T09:57:42.881Z,92.900
2023-02-11T09:58:27.840Z,93.100
2023-02-11T09:59:57.575Z,83.700
2023-02-11T10:00:33.572Z,87.400
2023-02-11T10:01:22.176Z,92.300
2023-02-11T10:02:23.091Z,101.300
2023-02-11T10:03:27.792Z,90.800
2023-02-11T10:04:22.208Z,88.000
2023-02-11T10:05:28.899Z,87.050
2023-02-11T10:07:25.826Z,99.450
2023-02-11T10:08:31.409Z,103.500
2023-02-11T10:09:25.665Z,99.300
2023-02-11T10:10:32.008Z,97.800
2023-02-11T10:11:31.699Z,92.000
2023-02-11T10:12:31.497Z,79.700
2023-02-11T10:13:31.261Z,82.600
2023-02-11T10:14:43.966Z,83.100
2023-02-11T10:15:35.034Z,84.000
2023-02-11T10:17:09.852Z,92.800
2023-02-11T10:18:22.682Z,83.050
2023-02-11T10:19:23.688Z,80.200
2023-02-11T10:20:21.862Z,92.050
2023-02-11T10:21:46.435Z,97.400
2023-02-11T10:22:40.085Z,95.000
2023-02-11T10:23:31.907Z,88.500
2023-02-11T10:24:25.183Z,81.500
2023-02-11T10:25:32.768Z,82.300
2023-02-11T10:26:25.513Z,76.500
2023-02-11T10:27:25.998Z,72.600
2023-02-11T10:28:59.834Z,69.850
2023-02-11T10:29:43.699Z,75.500
2023-02-11T10:30:36.811Z,74.000
2023-02-11T10:31:19.972Z,74.400
2023-02-11T10:32:21.089Z,75.300
2023-02-11T10:33:30.498Z,75.900
2023-02-11T10:34:23.463Z,69.900
2023-02-11T10:35:24.694Z,69.000
2023-02-11T10:36:50.167Z,67.200
2023-02-11T10:37:37.136Z,72.900
2023-02-11T10:38:23.959Z,86.300
2023-02-11T10:39:25.532Z,72.850
2023-02-11T10:40:34.087Z,81.000
2023-02-11T10:41:30.520Z,75.900
2023-02-11T10:42:19.801Z,80.700
2023-02-11T10:43:53.481Z,78.000
2023-02-11T10:44:40.495Z,79.750
2023-02-11T10:45:27.437Z,80.900
2023-02-11T10:46:22.691Z,80.100
2023-02-11T10:47:24.353Z,78.000
2023-02-11T10:48:33.656Z,83.600
2023-02-11T10:49:25.137Z,86.800
2023-02-11T10:52:27.944Z,71.350
2023-02-11T10:53:35.996Z,73.450
2023-02-11T10:54:29.750Z,78.900
2023-02-11T10:55:21.786Z,77.900
2023-02-11T10:56:24.489Z,77.100
2023-02-11T10:58:32.492Z,74.500
2023-02-11T10:59:33.200Z,71.700
2023-02-11T11:00:38.187Z,74.450
2023-02-11T11:01:33.138Z,73.300
2023-02-11T11:02:24.171Z,75.500
2023-02-11T11:03:22.752Z,70.200
2023-02-11T11:04:24.674Z,75.200
2023-02-11T11:05:50.717Z,71.000
2023-02-11T11:06:35.703Z,72.100
2023-02-11T11:07:26.087Z,70.200
2023-02-11T11:08:36.500Z,66.700
2023-02-11T11:09:29.447Z,64.500
2023-02-11T11:10:23.205Z,67.400
2023-02-11T11:11:28.740Z,68.000
2023-02-11T11:12:21.784Z,69.100
2023-02-11T11:13:39.214Z,63.200
2023-02-11T11:14:19.811Z,64.300
2023-02-11T11:15:36.484Z,73.100
2023-02-11T11:16:33.950Z,67.600
2023-02-11T11:17:27.653Z,68.900
2023-02-11T11:18:23.227Z,68.850
2023-02-11T11:19:25.900Z,71.200
2023-02-11T11:20:26.806Z,72.850
2023-02-11T11:21:29.740Z,76.900
2023-02-11T11:22:45.242Z,73.350
2023-02-11T11:23:38.573Z,75.300
2023-02-11T11:24:31.525Z,74.600
2023-02-11T11:25:37.152Z,75.400
2023-02-11T11:26:29.997Z,78.500
2023-02-11T11:27:23.620Z,76.700
2023-02-11T11:28:31.446Z,74.200
2023-02-11T11:29:50.211Z,70.550
2023-02-11T11:30:43.846Z,71.200
2023-02-11T11:31:23.331Z,65.000
2023-02-11T11:32:29.181Z,65.900
2023-02-11T11:33:19.967Z,67.700
2023-02-11T11:34:27.817Z,64.450
2023-02-11T11:35:20.333Z,67.200
2023-02-11T11:36:20.855Z,68.100
2023-02-11T11:37:28.869Z,64.550
2023-02-11T11:38:37.220Z,66.750
2023-02-11T11:39:28.584Z,64.600
2023-02-11T11:40:25.528Z,61.750
2023-02-11T11:41:24.139Z,66.250
2023-02-11T11:42:23.802Z,66.500
2023-02-11T11:43:23.985Z,68.750
2023-02-11T11:44:26.440Z,67.900
2023-02-11T11:45:21.898Z,64.100
2023-02-11T11:46:31.833Z,59.700
2023-02-11T11:47:30.959Z,61.450
2023-02-11T11:48:23.807Z,63.000
2023-02-11T11:49:29.098Z,61.800
2023-02-11T11:50:21.354Z,61.250
2023-02-11T11:51:25.243Z,64.700
2023-02-11T11:52:21.297Z,59.750
2023-02-11T11:53:31.024Z,63.000
2023-02-11T11:54:22.048Z,57.650
2023-02-11T11:55:25.871Z,56.700
2023-02-11T11:56:32.951Z,61.300
2023-02-11T11:57:25.122Z,60.750
2023-02-11T11:58:25.941Z,59.000
2023-02-11T11:59:21.267Z,61.300
2023-02-11T12:00:36.346Z,60.050
2023-02-11T12:01:25.013Z,59.300
2023-02-11T12:02:24.538Z,61.400
2023-02-11T12:03:23.134Z,54.350
2023-02-11T12:04:29.024Z,58.300
2023-02-11T12:05:21.978Z,57.600
2023-02-11T12:06:21.230Z,61.000
2023-02-11T12:07:31.305Z,58.900
2023-02-11T12:08:27.691Z,60.000
2023-02-11T12:09:23.524Z,58.300
2023-02-11T12:10:27.117Z,59.700
2023-02-11T12:11:20.851Z,56.650
2023-02-11T12:12:25.609Z,57.500
2023-02-11T12:13:23.062Z,56.150
2023-02-11T12:14:46.967Z,57.000
2023-02-11T12:15:31.917Z,51.400
2023-02-11T12:16:23.234Z,52.200
2023-02-11T12:17:38.645Z,52.550
2023-02-11T12:18:24.775Z,56.200
2023-02-11T12:19:27.701Z,56.600
2023-02-11T12:20:22.691Z,55.550
2023-02-11T12:21:32.667Z,54.800
2023-02-11T12:22:27.954Z,54.500
2023-02-11T12:23:24.533Z,56.700
2023-02-11T12:24:37.519Z,54.350
2023-02-11T12:25:29.291Z,53.700
2023-02-11T12:26:21.950Z,55.600
2023-02-11T12:27:21.277Z,57.200
2023-02-11T12:28:21.467Z,52.200
2023-02-11T12:29:29.313Z,52.700
2023-02-11T12:30:24.065Z,49.300
2023-02-11T12:31:33.513Z,52.100
2023-02-11T12:32:34.303Z,51.400
2023-02-11T12:33:25.958Z,54.200
2023-02-11T12:34:21.114Z,53.100
2023-02-11T12:35:24.339Z,52.100
2023-02-11T12:36:40.954Z,54.100
2023-02-11T12:37:28.070Z,51.750
2023-02-11T12:38:33.167Z,49.500
2023-02-11T12:39:29.803Z,53.000
2023-02-11T12:40:27.025Z,53.550
2023-02-11T12:41:23.782Z,54.000